Time;durP1;ratioP1;P1;durP2;ratioP2;P2;SDS_P1;SDS_P2;PMS_P1;PMS_P2;Temp;Humidity;BMP_temperature;BMP_pressure;BME280_temperature;BME280_humidity;BME280_pressure;Samples;Min_cycle;Max_cycle;Signal;HPM_P1;HPM_P2
2021/09/16 00:02:04;;;;;;;11.93;9.15;;;;;;;;;;5070771;28;20029;-66
2021/09/16 00:05:09;;;;;;;12.82;8.85;;;;;;;;;;5071110;28;20044;-66
2021/09/16 00:08:14;;;;;;;13.98;9.20;;;;;;;;;;5070741;28;20048;-66
2021/09/16 00:11:18;;;;;;;17.52;8.52;;;;;;;;;;5070747;28;20507;-66
2021/09/16 00:14:22;;;;;;;15.77;8.75;;;;;;;;;;5070710;28;20037;-66
2021/09/16 00:17:26;;;;;;;14.05;8.27;;;;;;;;;;5070703;28;20032;-66
2021/09/16 00:20:32;;;;;;;17.30;8.88;;;;;;;;;;5070609;28;20036;-66
2021/09/16 00:23:36;;;;;;;12.82;8.60;;;;;;;;;;5070565;28;20036;-66
2021/09/16 00:26:42;;;;;;;11.27;8.82;;;;;;;;;;5070517;28;20044;-66
2021/09/16 00:29:46;;;;;;;12.80;9.20;;;;;;;;;;5070544;28;20032;-66
2021/09/16 00:32:51;;;;;;;14.80;9.00;;;;;;;;;;5070341;28;20407;-66
2021/09/16 00:35:55;;;;;;;13.73;10.13;;;;;;;;;;5070421;28;20037;-66
2021/09/16 00:38:59;;;;;;;14.10;10.05;;;;;;;;;;5069656;28;20396;-66
2021/09/16 00:42:04;;;;;;;16.63;10.65;;;;;;;;;;5070424;28;20506;-66
2021/09/16 00:45:08;;;;;;;18.25;10.73;;;;;;;;;;5069639;28;20476;-66
2021/09/16 00:48:12;;;;;;;14.77;11.27;;;;;;;;;;5070432;28;20051;-66
2021/09/16 00:51:16;;;;;;;13.15;10.55;;;;;;;;;;5070900;28;20404;-66
2021/09/16 00:54:21;;;;;;;16.45;10.68;;;;;;;;;;5074269;28;20372;-66
2021/09/16 00:57:25;;;;;;;16.33;11.32;;;;;;;;;;5074320;28;20044;-66
2021/09/16 01:00:30;;;;;;;15.00;11.50;;;;;;;;;;5074270;28;20040;-66
2021/09/16 01:03:34;;;;;;;18.63;12.05;;;;;;;;;;5074097;28;20047;-66
2021/09/16 01:06:38;;;;;;;13.80;11.07;;;;;;;;;;5074162;28;20036;-66
2021/09/16 01:09:43;;;;;;;14.65;11.27;;;;;;;;;;5074385;28;20051;-66
2021/09/16 01:12:48;;;;;;;17.50;11.85;;;;;;;;;;5074124;28;20044;-67
2021/09/16 01:15:52;;;;;;;21.00;12.18;;;;;;;;;;5074698;28;20511;-66
2021/09/16 01:18:56;;;;;;;21.90;12.90;;;;;;;;;;5074184;28;20043;-66
2021/09/16 01:22:00;;;;;;;18.65;13.27;;;;;;;;;;5074194;28;20396;-66
2021/09/16 01:25:05;;;;;;;20.23;13.00;;;;;;;;;;5074075;28;20064;-66
2021/09/16 01:28:09;;;;;;;20.70;13.50;;;;;;;;;;5074084;28;20040;-66
2021/09/16 01:31:14;;;;;;;19.00;13.95;;;;;;;;;;5073780;28;20051;-66
2021/09/16 01:34:18;;;;;;;16.33;13.20;;;;;;;;;;5073783;28;20041;-66
2021/09/16 01:37:22;;;;;;;20.23;13.27;;;;;;;;;;5073465;28;20039;-66
2021/09/16 01:40:27;;;;;;;24.63;13.43;;;;;;;;;;5073475;28;20039;-66
2021/09/16 01:43:31;;;;;;;22.52;13.68;;;;;;;;;;5073331;28;20047;-66
2021/09/16 01:46:36;;;;;;;20.42;14.23;;;;;;;;;;5073532;28;20048;-66
2021/09/16 01:49:40;;;;;;;19.35;13.70;;;;;;;;;;5073673;28;20048;-66
2021/09/16 01:52:44;;;;;;;20.27;14.48;;;;;;;;;;5073289;28;20043;-66
2021/09/16 01:55:49;;;;;;;22.33;14.52;;;;;;;;;;5073340;28;20059;-66
2021/09/16 01:58:54;;;;;;;19.70;14.52;;;;;;;;;;5074814;28;20044;-66
2021/09/16 02:01:58;;;;;;;18.75;14.20;;;;;;;;;;5073309;28;20415;-66
2021/09/16 02:05:02;;;;;;;16.48;13.82;;;;;;;;;;5072581;28;20043;-66
2021/09/16 02:08:06;;;;;;;19.30;13.95;;;;;;;;;;5072936;28;20052;-66
2021/09/16 02:11:10;;;;;;;23.08;13.77;;;;;;;;;;5073145;28;20063;-66
2021/09/16 02:14:15;;;;;;;22.65;13.95;;;;;;;;;;5073002;28;20039;-66
2021/09/16 02:17:19;;;;;;;17.60;13.73;;;;;;;;;;5072114;28;20040;-66
2021/09/16 02:20:23;;;;;;;20.33;13.18;;;;;;;;;;5072838;28;20048;-66
2021/09/16 02:23:27;;;;;;;19.38;12.50;;;;;;;;;;5072899;28;20388;-66
2021/09/16 02:26:32;;;;;;;18.80;13.43;;;;;;;;;;5072666;28;20059;-66
2021/09/16 02:29:36;;;;;;;17.65;12.35;;;;;;;;;;5072871;28;20043;-66
2021/09/16 02:32:41;;;;;;;23.98;12.90;;;;;;;;;;5072697;28;20578;-66
2021/09/16 02:35:51;;;;;;;16.45;12.02;;;;;;;;;;5072332;28;20055;-66
2021/09/16 02:38:55;;;;;;;24.85;12.75;;;;;;;;;;5072436;28;20039;-67
2021/09/16 02:42:00;;;;;;;20.20;12.85;;;;;;;;;;5072343;28;20056;-67
2021/09/16 02:45:05;;;;;;;22.15;12.63;;;;;;;;;;5072306;28;20043;-67
2021/09/16 02:48:09;;;;;;;23.70;13.38;;;;;;;;;;5072163;28;20051;-66
2021/09/16 02:51:13;;;;;;;16.15;12.43;;;;;;;;;;5072133;28;20511;-66
2021/09/16 02:54:18;;;;;;;16.73;12.45;;;;;;;;;;5072102;28;20039;-66
2021/09/16 02:57:22;;;;;;;21.45;12.85;;;;;;;;;;5071963;28;20499;-66
2021/09/16 03:00:26;;;;;;;21.70;13.35;;;;;;;;;;5072015;28;20400;-66
2021/09/16 03:03:31;;;;;;;22.17;13.55;;;;;;;;;;5071709;28;20048;-67
2021/09/16 03:06:35;;;;;;;22.52;14.30;;;;;;;;;;5071688;28;20511;-67
2021/09/16 03:09:39;;;;;;;20.30;13.93;;;;;;;;;;5071822;28;20478;-66
2021/09/16 03:12:44;;;;;;;16.88;13.30;;;;;;;;;;5071995;28;20067;-66
2021/09/16 03:15:48;;;;;;;19.10;13.60;;;;;;;;;;5070663;28;20042;-66
2021/09/16 03:18:53;;;;;;;21.75;13.82;;;;;;;;;;5071649;28;20040;-66
2021/09/16 03:21:57;;;;;;;17.98;13.43;;;;;;;;;;5071432;28;20044;-66
2021/09/16 03:25:01;;;;;;;20.83;13.50;;;;;;;;;;5071507;28;20038;-66
2021/09/16 03:28:06;;;;;;;25.27;14.55;;;;;;;;;;5071390;28;20460;-66
2021/09/16 03:31:10;;;;;;;15.98;13.55;;;;;;;;;;5071336;28;20051;-66
2021/09/16 03:34:14;;;;;;;22.98;14.05;;;;;;;;;;5071282;28;20491;-66
2021/09/16 03:37:19;;;;;;;24.83;14.20;;;;;;;;;;5071395;28;20051;-66
2021/09/16 03:40:23;;;;;;;21.17;13.35;;;;;;;;;;5071190;28;20052;-67
2021/09/16 03:43:27;;;;;;;24.90;12.32;;;;;;;;;;5071098;28;20039;-66
2021/09/16 03:46:32;;;;;;;19.67;13.38;;;;;;;;;;5071160;28;20047;-67
2021/09/16 03:49:38;;;;;;;18.30;13.57;;;;;;;;;;5071134;28;20499;-66
2021/09/16 03:52:43;;;;;;;25.35;14.38;;;;;;;;;;5070978;28;20048;-66
2021/09/16 03:55:47;;;;;;;19.83;14.10;;;;;;;;;;5070993;28;20471;-66
2021/09/16 03:58:52;;;;;;;24.83;14.13;;;;;;;;;;5070951;28;20040;-67
2021/09/16 04:01:56;;;;;;;18.88;14.70;;;;;;;;;;5071092;28;20043;-66
2021/09/16 04:05:00;;;;;;;24.05;14.48;;;;;;;;;;5071158;28;20046;-66
2021/09/16 04:08:05;;;;;;;22.30;14.52;;;;;;;;;;5070710;28;20047;-66
2021/09/16 04:11:09;;;;;;;22.55;14.35;;;;;;;;;;5070698;28;20071;-66
2021/09/16 04:14:13;;;;;;;20.77;13.48;;;;;;;;;;5070736;28;20039;-66
2021/09/16 04:17:18;;;;;;;25.77;15.30;;;;;;;;;;5070714;28;20067;-66
2021/09/16 04:20:22;;;;;;;21.88;13.93;;;;;;;;;;5070709;28;20047;-66
2021/09/16 04:23:26;;;;;;;21.08;13.85;;;;;;;;;;5070983;28;20051;-66
2021/09/16 04:26:31;;;;;;;19.17;14.07;;;;;;;;;;5070283;28;20051;-66
2021/09/16 04:29:35;;;;;;;16.90;13.13;;;;;;;;;;5070702;28;20043;-66
2021/09/16 04:32:39;;;;;;;25.63;14.20;;;;;;;;;;5070457;28;20585;-66
2021/09/16 04:35:44;;;;;;;25.52;14.48;;;;;;;;;;5070678;28;20039;-67
2021/09/16 04:38:48;;;;;;;28.05;13.93;;;;;;;;;;5069554;28;20035;-66
2021/09/16 04:41:53;;;;;;;28.45;13.63;;;;;;;;;;5070253;28;20503;-66
2021/09/16 04:44:57;;;;;;;21.83;14.02;;;;;;;;;;5070545;28;20051;-66
2021/09/16 04:48:01;;;;;;;27.63;16.20;;;;;;;;;;5070344;28;20048;-66
2021/09/16 04:51:06;;;;;;;22.02;15.05;;;;;;;;;;5070116;28;20408;-66
2021/09/16 04:54:11;;;;;;;25.85;15.48;;;;;;;;;;5070154;28;20039;-66
2021/09/16 04:57:15;;;;;;;25.27;14.65;;;;;;;;;;5070483;28;20052;-66
2021/09/16 05:00:19;;;;;;;22.50;15.32;;;;;;;;;;5070258;28;20040;-66
2021/09/16 05:03:23;;;;;;;19.05;14.23;;;;;;;;;;5070392;28;20047;-66
2021/09/16 05:06:28;;;;;;;23.35;14.50;;;;;;;;;;5070177;28;20055;-66
2021/09/16 05:09:32;;;;;;;24.25;13.43;;;;;;;;;;5070179;28;20520;-66
2021/09/16 05:12:37;;;;;;;26.65;13.90;;;;;;;;;;5069508;28;20055;-66
2021/09/16 05:15:41;;;;;;;21.80;13.38;;;;;;;;;;5070049;28;20064;-66
2021/09/16 05:18:45;;;;;;;19.10;13.30;;;;;;;;;;5069948;28;20392;-67
2021/09/16 05:21:49;;;;;;;21.38;13.18;;;;;;;;;;5069834;28;20036;-66
2021/09/16 05:24:54;;;;;;;20.38;13.02;;;;;;;;;;5070182;28;20422;-66
2021/09/16 05:27:58;;;;;;;22.55;13.27;;;;;;;;;;5070098;28;20043;-67
2021/09/16 05:31:03;;;;;;;30.70;14.70;;;;;;;;;;5070140;28;20055;-66
2021/09/16 05:34:07;;;;;;;27.77;14.18;;;;;;;;;;5069953;28;20043;-67
2021/09/16 05:37:11;;;;;;;26.25;15.38;;;;;;;;;;5069837;28;20040;-67
2021/09/16 05:40:16;;;;;;;46.28;16.48;;;;;;;;;;5073278;28;20048;-60
2021/09/16 05:43:20;;;;;;;56.38;18.05;;;;;;;;;;5073231;28;20412;-60
2021/09/16 05:46:25;;;;;;;46.72;16.75;;;;;;;;;;5073586;28;20059;-60
2021/09/16 05:49:29;;;;;;;30.15;20.15;;;;;;;;;;5073430;28;20492;-60
2021/09/16 05:52:33;;;;;;;33.47;19.23;;;;;;;;;;5072910;28;20122;-60
2021/09/16 05:55:39;;;;;;;27.35;15.73;;;;;;;;;;5072881;28;20052;-60
2021/09/16 05:58:44;;;;;;;28.42;14.48;;;;;;;;;;5073375;28;20148;-59
2021/09/16 06:01:49;;;;;;;27.40;14.65;;;;;;;;;;5073084;28;20059;-60
2021/09/16 06:04:53;;;;;;;23.63;13.80;;;;;;;;;;5073340;28;20396;-60
2021/09/16 06:07:57;;;;;;;24.65;12.77;;;;;;;;;;5072861;28;20059;-60
2021/09/16 06:11:01;;;;;;;20.48;12.55;;;;;;;;;;5072882;28;20396;-63
2021/09/16 06:14:06;;;;;;;21.23;13.63;;;;;;;;;;5072770;28;20067;-60
2021/09/16 06:17:10;;;;;;;31.60;12.93;;;;;;;;;;5072829;28;20410;-60
2021/09/16 06:20:14;;;;;;;30.27;12.90;;;;;;;;;;5072774;28;20049;-61
2021/09/16 06:23:19;;;;;;;26.27;12.75;;;;;;;;;;5072737;28;20079;-61
2021/09/16 06:26:24;;;;;;;29.60;12.65;;;;;;;;;;5072565;28;20044;-61
2021/09/16 06:29:28;;;;;;;21.10;12.02;;;;;;;;;;5072601;28;20051;-60
2021/09/16 06:32:33;;;;;;;28.50;13.60;;;;;;;;;;5071594;28;20051;-60
2021/09/16 06:35:38;;;;;;;24.42;13.57;;;;;;;;;;5072441;28;20412;-60
2021/09/16 06:38:43;;;;;;;20.02;13.07;;;;;;;;;;5072102;28;20047;-60
2021/09/16 06:41:47;;;;;;;22.83;12.13;;;;;;;;;;5072215;28;20043;-60
2021/09/16 06:44:51;;;;;;;19.88;12.18;;;;;;;;;;5072061;28;20051;-60
2021/09/16 06:47:55;;;;;;;24.48;12.52;;;;;;;;;;5071215;28;20047;-60
2021/09/16 06:51:00;;;;;;;32.22;12.07;;;;;;;;;;5071849;28;20048;-60
2021/09/16 06:54:04;;;;;;;20.58;13.15;;;;;;;;;;5072174;28;20043;-61
2021/09/16 06:57:08;;;;;;;23.77;11.68;;;;;;;;;;5072412;28;20051;-58
2021/09/16 07:00:15;;;;;;;26.00;11.77;;;;;;;;;;5072240;28;20051;-58
2021/09/16 07:03:19;;;;;;;19.13;10.48;;;;;;;;;;5071768;28;20076;-59
2021/09/16 07:06:24;;;;;;;15.18;9.80;;;;;;;;;;5072252;28;20047;-59
2021/09/16 07:09:36;;;;;;;17.75;9.05;;;;;;;;;;5072231;28;20404;-61
2021/09/16 07:12:41;;;;;;;15.63;9.07;;;;;;;;;;5071490;28;20429;-61
2021/09/16 07:15:45;;;;;;;13.50;8.80;;;;;;;;;;5071818;28;20040;-58
2021/09/16 07:18:49;;;;;;;30.50;10.52;;;;;;;;;;5071557;28;20049;-58
2021/09/16 07:21:54;;;;;;;15.07;8.80;;;;;;;;;;5071701;28;20055;-58
2021/09/16 07:24:58;;;;;;;15.15;7.72;;;;;;;;;;5071490;28;20072;-59
2021/09/16 07:28:03;;;;;;;19.05;7.78;;;;;;;;;;5071528;28;20491;-59
2021/09/16 07:31:08;;;;;;;11.35;6.80;;;;;;;;;;5070720;28;20044;-59
2021/09/16 07:34:12;;;;;;;17.30;8.05;;;;;;;;;;5070408;28;20407;-59
2021/09/16 07:37:16;;;;;;;12.38;7.10;;;;;;;;;;5071240;28;20063;-59
2021/09/16 07:40:21;;;;;;;9.55;6.78;;;;;;;;;;5071438;28;20397;-59
2021/09/16 07:43:25;;;;;;;12.90;7.50;;;;;;;;;;5070988;28;20037;-60
2021/09/16 07:46:31;;;;;;;24.35;8.30;;;;;;;;;;5071178;28;20044;-59
2021/09/16 07:49:35;;;;;;;52.00;14.65;;;;;;;;;;5070911;28;20048;-59
2021/09/16 07:52:39;;;;;;;12.10;7.20;;;;;;;;;;5070489;28;20417;-60
2021/09/16 07:55:45;;;;;;;9.48;7.20;;;;;;;;;;5070940;28;20044;-60
2021/09/16 07:58:49;;;;;;;11.23;6.70;;;;;;;;;;5070874;28;20040;-60
2021/09/16 08:01:54;;;;;;;9.50;6.75;;;;;;;;;;5070525;28;20036;-60
2021/09/16 08:04:59;;;;;;;31.17;7.78;;;;;;;;;;5070969;28;20036;-58
2021/09/16 08:08:03;;;;;;;58.95;11.00;;;;;;;;;;5070000;28;20484;-60
2021/09/16 08:11:07;;;;;;;9.38;6.22;;;;;;;;;;5070796;28;20065;-60
2021/09/16 08:14:12;;;;;;;7.70;6.75;;;;;;;;;;5071346;28;20052;-60
2021/09/16 08:17:16;;;;;;;9.80;6.03;;;;;;;;;;5070884;28;20040;-59
2021/09/16 08:20:21;;;;;;;9.02;6.38;;;;;;;;;;5070607;28;20377;-59
2021/09/16 08:23:25;;;;;;;14.13;6.40;;;;;;;;;;5070905;28;20037;-59
2021/09/16 08:26:30;;;;;;;18.30;6.68;;;;;;;;;;5071064;28;20512;-59
2021/09/16 08:29:34;;;;;;;6.60;5.95;;;;;;;;;;5070341;28;20037;-60
2021/09/16 08:32:39;;;;;;;7.22;6.07;;;;;;;;;;5070298;28;20048;-60
2021/09/16 08:35:44;;;;;;;10.80;7.15;;;;;;;;;;5070676;28;20037;-60
2021/09/16 08:38:48;;;;;;;16.42;7.05;;;;;;;;;;5070473;28;20052;-60
2021/09/16 08:41:53;;;;;;;13.77;6.43;;;;;;;;;;5070210;28;20043;-60
2021/09/16 08:44:57;;;;;;;8.85;5.97;;;;;;;;;;5071010;28;20036;-60
2021/09/16 08:48:02;;;;;;;9.15;5.88;;;;;;;;;;5070801;28;20044;-59
2021/09/16 08:51:08;;;;;;;7.28;5.95;;;;;;;;;;5070538;28;20044;-59
2021/09/16 08:54:12;;;;;;;8.15;6.15;;;;;;;;;;5070819;28;20048;-59
2021/09/16 08:57:17;;;;;;;8.30;5.97;;;;;;;;;;5070491;28;20044;-59
2021/09/16 09:00:22;;;;;;;10.88;6.85;;;;;;;;;;5070054;28;20488;-59
2021/09/16 09:03:26;;;;;;;7.82;5.72;;;;;;;;;;5070504;28;20032;-59
2021/09/16 09:06:34;;;;;;;9.38;5.97;;;;;;;;;;5069513;28;20041;-59
2021/09/16 09:09:42;;;;;;;12.85;6.35;;;;;;;;;;5069035;28;20041;-59
2021/09/16 09:12:46;;;;;;;14.52;5.95;;;;;;;;;;5070945;28;20110;-59
2021/09/16 09:15:58;;;;;;;9.52;5.50;;;;;;;;;;5073161;28;20454;-59
2021/09/16 09:19:14;;;;;;;11.02;6.15;;;;;;;;;;5073796;28;20037;-59
2021/09/16 09:22:26;;;;;;;9.68;5.80;;;;;;;;;;5073301;28;20039;-58
2021/09/16 09:25:30;;;;;;;10.32;5.80;;;;;;;;;;5073889;28;20468;-59
2021/09/16 09:28:35;;;;;;;9.88;5.72;;;;;;;;;;5072773;28;20045;-59
2021/09/16 09:31:41;;;;;;;7.38;5.63;;;;;;;;;;5073563;28;20044;-59
2021/09/16 09:34:45;;;;;;;16.85;6.65;;;;;;;;;;5073580;28;20032;-59
2021/09/16 09:37:50;;;;;;;6.55;5.93;;;;;;;;;;5073625;28;20040;-59
2021/09/16 09:40:59;;;;;;;13.82;6.15;;;;;;;;;;5073915;28;20040;-59
2021/09/16 09:44:07;;;;;;;18.75;8.15;;;;;;;;;;5073480;28;20040;-59
2021/09/16 09:47:11;;;;;;;12.32;6.38;;;;;;;;;;5073486;28;20036;-59
2021/09/16 09:50:23;;;;;;;11.05;6.40;;;;;;;;;;5073413;28;20406;-59
2021/09/16 09:53:27;;;;;;;6.70;6.00;;;;;;;;;;5073370;28;20054;-59
2021/09/16 09:56:32;;;;;;;8.13;6.07;;;;;;;;;;5073398;28;20385;-59
2021/09/16 09:59:59;;;;;;;17.13;6.85;;;;;;;;;;5073328;28;20040;-59
2021/09/16 10:03:03;;;;;;;15.05;6.78;;;;;;;;;;5073659;28;20033;-59
2021/09/16 10:06:10;;;;;;;12.93;6.35;;;;;;;;;;5072889;28;20496;-59
2021/09/16 10:09:15;;;;;;;16.60;7.57;;;;;;;;;;5073280;28;20052;-59
2021/09/16 10:12:19;;;;;;;12.00;6.47;;;;;;;;;;5072768;28;20523;-58
2021/09/16 10:15:24;;;;;;;10.05;6.75;;;;;;;;;;5072789;28;20032;-59
2021/09/16 10:18:28;;;;;;;14.50;6.97;;;;;;;;;;5071661;28;20052;-58
2021/09/16 10:21:33;;;;;;;10.15;7.25;;;;;;;;;;5072023;28;20048;-58
2021/09/16 10:24:38;;;;;;;16.00;7.80;;;;;;;;;;5071931;28;20033;-58
2021/09/16 10:27:55;;;;;;;15.35;7.18;;;;;;;;;;5071774;28;20037;-58
2021/09/16 10:30:59;;;;;;;14.48;6.63;;;;;;;;;;5071629;28;20043;-59
2021/09/16 10:34:23;;;;;;;12.90;7.70;;;;;;;;;;5072728;28;20037;-59
2021/09/16 10:37:35;;;;;;;9.77;6.38;;;;;;;;;;5071796;28;20038;-60
2021/09/16 10:40:39;;;;;;;8.40;6.25;;;;;;;;;;5072511;28;20374;-60
2021/09/16 10:43:45;;;;;;;12.10;8.18;;;;;;;;;;5072710;28;20044;-60
2021/09/16 10:46:51;;;;;;;16.67;7.32;;;;;;;;;;5072598;28;20033;-61
2021/09/16 10:49:55;;;;;;;15.75;9.20;;;;;;;;;;5072451;28;20041;-60
2021/09/16 10:53:33;;;;;;;10.88;7.65;;;;;;;;;;5072245;28;20052;-60
2021/09/16 10:56:38;;;;;;;7.82;6.97;;;;;;;;;;5071236;28;20043;-59
2021/09/16 10:59:15;;;;;;;11.70;7.22;;;;;;;;;;5068359;28;20743;-60
2021/09/16 11:01:53;;;;;;;11.68;5.80;;;;;;;;;;5068173;28;20394;-59
2021/09/16 11:04:51;;;;;;;8.23;5.20;;;;;;;;;;5005129;28;20410;-58
2021/09/16 11:07:55;;;;;;;9.52;5.57;;;;;;;;;;5005130;28;20420;-58
2021/09/16 11:11:02;;;;;;;7.47;4.72;;;;;;;;;;5005094;28;20476;-60
2021/09/16 11:14:06;;;;;;;8.20;5.22;;;;;;;;;;5005059;28;20038;-60
2021/09/16 11:17:14;;;;;;;7.00;4.95;;;;;;;;;;5005360;28;20038;-59
2021/09/16 11:19:52;;;;;;;7.03;5.13;;;;;;;;;;5068374;28;20386;-60
2021/09/16 11:22:30;;;;;;;8.00;4.75;;;;;;;;;;5068286;28;20394;-59
2021/09/16 11:25:09;;;;;;;6.53;4.60;;;;;;;;;;5068361;28;20398;-61
2021/09/16 11:27:46;;;;;;;8.38;4.97;;;;;;;;;;5068637;28;20401;-61
2021/09/16 11:30:24;;;;;;;5.22;4.13;;;;;;;;;;5068601;28;20387;-61
2021/09/16 11:33:07;;;;;;;8.73;4.40;;;;;;;;;;5068346;28;20406;-59
2021/09/16 11:35:47;;;;;;;5.45;4.72;;;;;;;;;;5068609;28;20770;-61
2021/09/16 11:38:26;;;;;;;7.45;4.82;;;;;;;;;;5068413;28;20393;-61
2021/09/16 11:41:04;;;;;;;7.22;4.10;;;;;;;;;;5068452;28;20390;-60
2021/09/16 11:43:43;;;;;;;11.23;4.85;;;;;;;;;;5068288;28;20418;-59
2021/09/16 11:46:22;;;;;;;10.02;4.82;;;;;;;;;;5068534;28;20398;-61
2021/09/16 11:49:03;;;;;;;6.85;4.32;;;;;;;;;;5068422;28;20391;-60
2021/09/16 11:51:51;;;;;;;6.55;3.72;;;;;;;;;;5068226;28;20398;-60
2021/09/16 11:54:29;;;;;;;12.02;4.05;;;;;;;;;;5068101;28;20727;-58
2021/09/16 11:57:07;;;;;;;11.50;4.40;;;;;;;;;;5068326;28;20397;-60
2021/09/16 11:59:45;;;;;;;5.72;4.25;;;;;;;;;;5068228;28;20397;-58
2021/09/16 12:02:24;;;;;;;8.77;4.57;;;;;;;;;;5068281;28;20391;-59
2021/09/16 12:05:02;;;;;;;8.20;3.97;;;;;;;;;;5068335;28;20394;-59
2021/09/16 12:07:42;;;;;;;9.02;3.72;;;;;;;;;;5068221;28;20383;-58
2021/09/16 12:10:20;;;;;;;4.45;3.45;;;;;;;;;;5068265;28;20394;-60
2021/09/16 12:12:58;;;;;;;9.40;4.20;;;;;;;;;;5068359;28;20766;-60
2021/09/16 12:15:36;;;;;;;6.68;3.90;;;;;;;;;;5068482;28;21028;-60
2021/09/16 12:18:15;;;;;;;4.70;3.70;;;;;;;;;;5068447;28;20932;-58
2021/09/16 12:20:53;;;;;;;4.55;3.20;;;;;;;;;;5067866;28;20394;-58
2021/09/16 12:23:31;;;;;;;6.55;3.10;;;;;;;;;;5088379;27;20397;-60
2021/09/16 12:26:09;;;;;;;3.92;2.90;;;;;;;;;;5068401;28;20398;-58
2021/09/16 12:29:06;;;;;;;5.15;3.40;;;;;;;;;;5068510;28;20395;-58
2021/09/16 12:31:44;;;;;;;4.28;2.70;;;;;;;;;;5068186;28;20390;-59
2021/09/16 12:34:23;;;;;;;6.15;3.33;;;;;;;;;;5068020;28;20399;-59
2021/09/16 12:37:09;;;;;;;8.40;3.40;;;;;;;;;;5068270;28;20390;-60
2021/09/16 12:39:52;;;;;;;6.47;3.90;;;;;;;;;;5106634;27;1322520;-60
2021/09/16 12:42:33;;;;;;;7.45;3.53;;;;;;;;;;5068371;28;20394;-60
2021/09/16 12:45:11;;;;;;;4.65;3.63;;;;;;;;;;5068493;28;20397;-58
2021/09/16 12:47:50;;;;;;;5.47;3.30;;;;;;;;;;5068194;28;20394;-60
2021/09/16 12:50:28;;;;;;;4.32;2.88;;;;;;;;;;5108684;27;20372;-58
2021/09/16 12:53:14;;;;;;;4.97;3.90;;;;;;;;;;5068622;28;20398;-60
2021/09/16 12:56:06;;;;;;;5.35;3.30;;;;;;;;;;5068474;28;20398;-60
2021/09/16 12:58:43;;;;;;;5.32;3.53;;;;;;;;;;5068595;28;20394;-60
2021/09/16 13:01:32;;;;;;;4.80;3.33;;;;;;;;;;5068422;28;20390;-58
2021/09/16 13:04:09;;;;;;;3.97;3.28;;;;;;;;;;5109099;27;20391;-58
2021/09/16 13:06:48;;;;;;;4.75;3.35;;;;;;;;;;5068483;28;20402;-60
2021/09/16 13:09:29;;;;;;;8.73;3.50;;;;;;;;;;5068593;28;20406;-60
2021/09/16 13:12:18;;;;;;;7.57;3.60;;;;;;;;;;5068308;28;20401;-59
2021/09/16 13:14:55;;;;;;;6.72;3.45;;;;;;;;;;5068285;28;20391;-58
2021/09/16 13:17:34;;;;;;;5.72;3.53;;;;;;;;;;5068358;28;20391;-59
2021/09/16 13:20:12;;;;;;;5.25;3.13;;;;;;;;;;5068589;28;20936;-60
2021/09/16 13:22:51;;;;;;;9.13;3.55;;;;;;;;;;5068417;28;20378;-60
2021/09/16 13:25:28;;;;;;;4.03;3.05;;;;;;;;;;5068687;28;20944;-59
2021/09/16 13:28:06;;;;;;;4.50;3.00;;;;;;;;;;5068379;28;20391;-60
2021/09/16 13:30:44;;;;;;;6.18;4.05;;;;;;;;;;5068221;28;20387;-60
2021/09/16 13:33:23;;;;;;;8.85;3.65;;;;;;;;;;5068548;28;20390;-60
2021/09/16 13:36:01;;;;;;;6.03;3.28;;;;;;;;;;5068438;28;20398;-59
2021/09/16 13:38:39;;;;;;;8.25;3.30;;;;;;;;;;5068400;28;20387;-58
2021/09/16 13:41:17;;;;;;;7.47;3.63;;;;;;;;;;5068388;28;20394;-58
2021/09/16 13:43:55;;;;;;;5.63;3.13;;;;;;;;;;5068220;28;20393;-60
2021/09/16 13:46:38;;;;;;;6.72;3.22;;;;;;;;;;5068653;28;20398;-58
2021/09/16 13:49:16;;;;;;;9.20;3.30;;;;;;;;;;5068477;28;20389;-58
2021/09/16 13:51:53;;;;;;;5.82;3.25;;;;;;;;;;5068309;28;20386;-58
2021/09/16 13:54:31;;;;;;;5.25;3.85;;;;;;;;;;5068496;28;20390;-58
2021/09/16 13:57:09;;;;;;;7.57;3.60;;;;;;;;;;5068212;28;20394;-59
2021/09/16 13:59:48;;;;;;;6.05;3.75;;;;;;;;;;5068425;28;20398;-59
2021/09/16 14:02:26;;;;;;;4.00;3.38;;;;;;;;;;5068431;28;20398;-60
2021/09/16 14:05:05;;;;;;;7.38;3.90;;;;;;;;;;5068116;28;20390;-58
2021/09/16 14:07:43;;;;;;;9.13;4.20;;;;;;;;;;5068384;28;20391;-59
2021/09/16 14:10:20;;;;;;;6.65;3.55;;;;;;;;;;5068217;28;20410;-60
2021/09/16 14:12:57;;;;;;;5.03;3.60;;;;;;;;;;5106984;27;1313103;-59
2021/09/16 14:15:35;;;;;;;4.30;3.70;;;;;;;;;;5068103;28;20386;-58
2021/09/16 14:18:14;;;;;;;5.18;3.63;;;;;;;;;;5068107;28;20394;-61
2021/09/16 14:20:52;;;;;;;7.25;3.92;;;;;;;;;;5067154;28;20394;-58
2021/09/16 14:23:30;;;;;;;5.25;3.70;;;;;;;;;;5068105;28;20421;-59
2021/09/16 14:26:08;;;;;;;5.88;4.13;;;;;;;;;;5068277;28;20410;-61
2021/09/16 14:28:46;;;;;;;8.70;3.65;;;;;;;;;;5068096;28;20386;-59
2021/09/16 14:31:25;;;;;;;6.07;3.47;;;;;;;;;;5068024;28;20703;-60
2021/09/16 14:34:04;;;;;;;9.45;3.90;;;;;;;;;;5068136;28;20389;-59
2021/09/16 14:36:43;;;;;;;4.82;3.38;;;;;;;;;;5149770;27;20123;-60
2021/09/16 14:39:21;;;;;;;5.55;3.83;;;;;;;;;;5068092;28;20391;-58
2021/09/16 14:41:59;;;;;;;7.20;3.88;;;;;;;;;;5068062;28;20398;-60
2021/09/16 14:44:37;;;;;;;6.50;3.60;;;;;;;;;;5067945;28;20397;-61
2021/09/16 14:47:16;;;;;;;6.38;4.00;;;;;;;;;;5004892;28;20393;-61
2021/09/16 14:49:52;;;;;;;7.85;3.88;;;;;;;;;;5106750;27;1318844;-62
2021/09/16 14:52:30;;;;;;;4.32;3.30;;;;;;;;;;5067752;28;20402;-60
2021/09/16 14:55:09;;;;;;;8.07;3.60;;;;;;;;;;5066879;28;20390;-59
2021/09/16 14:57:48;;;;;;;7.68;3.88;;;;;;;;;;5088218;28;20404;-60
2021/09/16 15:00:25;;;;;;;5.10;3.60;;;;;;;;;;5067466;28;20402;-59
2021/09/16 15:03:03;;;;;;;6.25;3.60;;;;;;;;;;5068358;28;20402;-60
2021/09/16 15:05:40;;;;;;;6.32;4.05;;;;;;;;;;5106724;27;1320379;-60
2021/09/16 15:08:16;;;;;;;6.78;3.30;;;;;;;;;;5105112;27;1359385;-60
2021/09/16 15:10:54;;;;;;;10.45;3.65;;;;;;;;;;5067946;28;20394;-58
2021/09/16 15:13:33;;;;;;;4.55;3.40;;;;;;;;;;5067863;28;20774;-60
2021/09/16 15:16:11;;;;;;;4.90;3.97;;;;;;;;;;5068069;28;20390;-59
2021/09/16 15:18:49;;;;;;;4.90;3.45;;;;;;;;;;5068247;28;20387;-59
2021/09/16 15:21:27;;;;;;;4.15;3.28;;;;;;;;;;5068200;28;20387;-60
2021/09/16 15:24:06;;;;;;;3.42;3.00;;;;;;;;;;5068219;28;20386;-58
2021/09/16 15:26:44;;;;;;;5.72;3.20;;;;;;;;;;5088527;27;20392;-61
2021/09/16 15:29:22;;;;;;;6.18;3.50;;;;;;;;;;5067938;28;20391;-59
2021/09/16 15:32:00;;;;;;;3.83;3.00;;;;;;;;;;5108626;27;20387;-60
2021/09/16 15:34:39;;;;;;;4.63;3.10;;;;;;;;;;5068203;28;20770;-59
2021/09/16 15:37:17;;;;;;;14.60;4.28;;;;;;;;;;5128973;27;20135;-59
2021/09/16 15:39:55;;;;;;;6.55;3.72;;;;;;;;;;5068153;28;20390;-62
2021/09/16 15:42:33;;;;;;;7.18;3.08;;;;;;;;;;5109125;27;20394;-63
2021/09/16 15:45:11;;;;;;;9.63;3.50;;;;;;;;;;5068305;28;21115;-62
2021/09/16 15:47:49;;;;;;;8.02;4.03;;;;;;;;;;5068315;28;20404;-62
2021/09/16 15:50:28;;;;;;;4.45;3.70;;;;;;;;;;5067907;28;20397;-60
2021/09/16 15:53:07;;;;;;;11.55;4.18;;;;;;;;;;5067916;28;20390;-60
2021/09/16 15:55:44;;;;;;;12.05;5.65;;;;;;;;;;5068043;28;20409;-61
2021/09/16 15:58:22;;;;;;;14.55;4.30;;;;;;;;;;5149886;27;20385;-61
2021/09/16 16:01:00;;;;;;;9.38;4.22;;;;;;;;;;5067854;28;20394;-61
2021/09/16 16:03:39;;;;;;;8.35;4.45;;;;;;;;;;5068521;28;20390;-62
2021/09/16 16:06:17;;;;;;;7.72;5.05;;;;;;;;;;5088235;28;20384;-60
2021/09/16 16:08:55;;;;;;;12.20;4.85;;;;;;;;;;5067882;28;20398;-63
2021/09/16 16:11:33;;;;;;;12.55;5.05;;;;;;;;;;5067908;28;20391;-64
2021/09/16 16:14:11;;;;;;;6.03;4.72;;;;;;;;;;5066778;28;20390;-61
2021/09/16 16:16:50;;;;;;;11.07;5.07;;;;;;;;;;5066635;28;20402;-62
2021/09/16 16:19:28;;;;;;;13.23;5.20;;;;;;;;;;5067910;28;20429;-59
2021/09/16 16:22:06;;;;;;;9.13;5.15;;;;;;;;;;5088183;27;20773;-61
2021/09/16 16:24:43;;;;;;;12.90;4.75;;;;;;;;;;5098811;27;1547122;-61
2021/09/16 16:27:22;;;;;;;19.83;4.80;;;;;;;;;;5119671;27;20483;-62
2021/09/16 16:30:00;;;;;;;11.45;5.18;;;;;;;;;;5127134;27;20132;-60
2021/09/16 16:32:39;;;;;;;13.98;5.30;;;;;;;;;;5066935;28;20452;-60
2021/09/16 16:35:17;;;;;;;8.15;4.80;;;;;;;;;;5067866;28;20394;-59
2021/09/16 16:37:56;;;;;;;9.55;4.75;;;;;;;;;;5067664;28;20387;-59
2021/09/16 16:40:33;;;;;;;12.70;4.97;;;;;;;;;;5068170;28;20398;-58
2021/09/16 16:43:10;;;;;;;16.15;5.28;;;;;;;;;;5065361;27;1316159;-58
2021/09/16 16:45:49;;;;;;;13.82;4.72;;;;;;;;;;5065827;28;20389;-60
2021/09/16 16:48:26;;;;;;;11.27;5.22;;;;;;;;;;5066891;28;20386;-59
2021/09/16 16:51:05;;;;;;;12.57;4.50;;;;;;;;;;5067300;28;20383;-58
2021/09/16 16:53:43;;;;;;;7.75;4.72;;;;;;;;;;5066891;28;20394;-60
2021/09/16 16:56:21;;;;;;;9.48;4.45;;;;;;;;;;5067613;28;20924;-60
2021/09/16 16:58:59;;;;;;;8.88;4.57;;;;;;;;;;5068156;28;20873;-60
2021/09/16 17:01:37;;;;;;;13.23;5.75;;;;;;;;;;5067868;28;20393;-60
2021/09/16 17:04:16;;;;;;;11.02;5.05;;;;;;;;;;5088345;27;20397;-60
2021/09/16 17:06:54;;;;;;;12.68;5.22;;;;;;;;;;5068003;28;20390;-60
2021/09/16 17:09:33;;;;;;;13.75;5.55;;;;;;;;;;5067972;28;20383;-60
2021/09/16 17:12:11;;;;;;;26.42;7.07;;;;;;;;;;5108323;27;20178;-59